Time;durP1;ratioP1;P1;durP2;ratioP2;P2;SDS_P1;SDS_P2;PMS_P1;PMS_P2;Temp;Humidity;BMP_temperature;BMP_pressure;BME280_temperature;BME280_humidity;BME280_pressure;Samples;Min_cycle;Max_cycle;Signal;HPM_P1;HPM_P2
2021/05/06 00:02:00;;;;;;;1.30;1.00;;;17.70;51.10;;;;;;5019495;28;20218;-67
2021/05/06 00:34:03;;;;;;;2.13;1.20;;;17.60;51.10;;;;;;5033874;28;20164;-67
2021/05/06 00:36:28;;;;;;;1.58;1.10;;;17.70;51.20;;;;;;5016601;28;20584;-67
2021/05/06 00:39:01;;;;;;;1.23;1.10;;;17.60;51.10;;;;;;5034505;28;20300;-67
2021/05/06 01:07:54;;;;;;;1.83;1.02;;;17.50;51.10;;;;;;5016443;28;20250;-68
2021/05/06 01:13:04;;;;;;;1.00;0.90;;;17.50;51.40;;;;;;5033217;28;20257;-67
2021/05/06 01:15:29;;;;;;;1.98;1.05;;;17.50;51.10;;;;;;5032840;28;20198;-67
2021/05/06 01:17:55;;;;;;;1.25;0.90;;;17.50;51.20;;;;;;4999605;28;20250;-66
2021/05/06 01:20:21;;;;;;;1.80;1.10;;;17.50;51.20;;;;;;5033335;28;20203;-68
2021/05/06 01:22:46;;;;;;;1.30;0.90;;;17.50;51.10;;;;;;5015335;28;20653;-67
2021/05/06 01:25:13;;;;;;;1.25;1.15;;;17.50;51.20;;;;;;5015902;28;20231;-67
2021/05/06 01:27:47;;;;;;;1.30;0.82;;;17.50;51.20;;;;;;5033290;28;20257;-67
2021/05/06 01:30:32;;;;;;;2.08;1.30;;;17.40;51.80;;;;;;5032791;28;20694;-66
2021/05/06 01:33:09;;;;;;;1.60;0.90;;;17.50;51.20;;;;;;5033648;28;20574;-67
2021/05/06 01:35:41;;;;;;;0.90;0.90;;;17.40;51.10;;;;;;5032406;28;20180;-66
2021/05/06 01:47:01;;;;;;;0.98;0.90;;;17.40;51.10;;;;;;5033171;28;20168;-69
2021/05/06 01:49:09;;;;;;;1.20;1.05;;;17.40;51.20;;;;;;5019863;28;20183;-66
2021/05/06 01:59:45;;;;;;;1.13;0.80;;;17.40;51.10;;;;;;5032542;28;20619;-68
2021/05/06 02:02:10;;;;;;;1.00;0.90;;;17.40;51.10;;;;;;5000397;28;20218;-67
2021/05/06 02:04:36;;;;;;;1.08;0.90;;;17.30;51.00;;;;;;5015045;28;20199;-68
2021/05/06 02:07:02;;;;;;;0.80;0.80;;;17.30;51.10;;;;;;5032984;28;20624;-65
2021/05/06 02:09:27;;;;;;;1.17;1.08;;;17.30;51.10;;;;;;5031775;28;20220;-66
2021/05/06 02:11:53;;;;;;;1.17;1.00;;;17.30;51.00;;;;;;4999090;28;20231;-67
2021/05/06 02:14:18;;;;;;;1.42;1.02;;;17.30;51.00;;;;;;5032555;28;20171;-67
2021/05/06 02:16:44;;;;;;;1.13;0.93;;;17.30;51.10;;;;;;5014635;28;20253;-67
2021/05/06 02:19:09;;;;;;;1.40;1.20;;;17.30;51.10;;;;;;5032712;28;20294;-67
2021/05/06 02:21:35;;;;;;;1.00;0.90;;;17.30;51.10;;;;;;5032492;28;20225;-67
2021/05/06 02:24:01;;;;;;;0.93;0.90;;;17.30;51.10;;;;;;4998182;28;20184;-67
2021/05/06 02:26:26;;;;;;;0.85;0.85;;;17.30;51.00;;;;;;5019019;28;20594;-67
2021/05/06 02:28:52;;;;;;;0.77;0.68;;;17.30;51.10;;;;;;5036744;28;20538;-66
2021/05/06 02:31:18;;;;;;;0.70;0.70;;;17.30;51.10;;;;;;5018389;28;20172;-66
2021/05/06 02:33:44;;;;;;;0.93;0.90;;;17.30;51.30;;;;;;5036884;28;20171;-65
2021/05/06 02:36:10;;;;;;;0.70;0.70;;;17.30;51.10;;;;;;5036621;28;20168;-66
2021/05/06 02:38:35;;;;;;;1.13;0.90;;;17.20;51.00;;;;;;5035645;28;20234;-67
2021/05/06 02:41:01;;;;;;;1.00;0.95;;;17.20;51.00;;;;;;4986385;28;20553;-67
2021/05/06 02:43:27;;;;;;;1.10;1.00;;;17.20;51.00;;;;;;5018572;28;20172;-68
2021/05/06 02:45:52;;;;;;;0.70;0.70;;;17.20;51.00;;;;;;5018241;28;20206;-68
2021/05/06 02:48:18;;;;;;;1.48;1.10;;;17.20;51.00;;;;;;5018518;28;20207;-67
2021/05/06 02:50:48;;;;;;;1.02;0.88;;;17.20;51.00;;;;;;5036491;28;20175;-68
2021/05/06 02:53:17;;;;;;;0.82;0.80;;;17.20;51.00;;;;;;5036207;28;20644;-67
2021/05/06 03:03:43;;;;;;;0.90;0.90;;;17.20;51.00;;;;;;5036094;28;20191;-66
2021/05/06 03:06:13;;;;;;;1.20;1.00;;;17.20;51.00;;;;;;5035517;28;20646;-66
2021/05/06 03:08:41;;;;;;;0.70;0.70;;;17.10;51.00;;;;;;5017740;28;20286;-67
2021/05/06 03:24:31;;;;;;;1.20;0.75;;;17.10;51.00;;;;;;5003928;28;20187;-67
2021/05/06 03:26:58;;;;;;;0.90;0.85;;;17.10;51.00;;;;;;5018206;28;20632;-67
2021/05/06 03:35:10;;;;;;;0.73;0.73;;;17.10;51.10;;;;;;4973854;28;20272;-65
2021/05/06 03:43:23;;;;;;;1.38;0.90;;;17.10;51.10;;;;;;5004881;28;20171;-68
2021/05/06 04:36:06;;;;;;;1.02;0.90;;;16.90;51.00;;;;;;5034328;28;20586;-65
2021/05/06 04:38:31;;;;;;;0.85;0.80;;;16.90;51.10;;;;;;5033492;28;20566;-67
2021/05/06 05:05:30;;;;;;;0.85;0.85;;;16.90;51.10;;;;;;4995541;28;20194;-67
2021/05/06 05:08:03;;;;;;;1.05;0.68;;;16.90;51.20;;;;;;5016241;28;20172;-66
2021/05/06 05:13:13;;;;;;;0.40;0.40;;;17.10;51.20;;;;;;5015950;28;20172;-67
2021/05/06 05:18:37;;;;;;;0.60;0.60;;;17.40;50.90;;;;;;5033331;28;20202;-67
2021/05/06 05:23:41;;;;;;;0.60;0.60;;;17.80;50.30;;;;;;5033452;28;20168;-68
2021/05/06 05:26:10;;;;;;;1.15;0.70;;;17.90;50.00;;;;;;5032976;28;20266;-67
2021/05/06 05:28:37;;;;;;;0.70;0.52;;;18.10;49.90;;;;;;5016215;28;20190;-67
2021/05/06 05:31:02;;;;;;;0.55;0.55;;;18.20;49.70;;;;;;5015958;28;20171;-67
2021/05/06 05:33:31;;;;;;;0.70;0.70;;;18.30;49.50;;;;;;5014988;28;20525;-67
2021/05/06 05:38:46;;;;;;;0.60;0.60;;;18.50;49.10;;;;;;5033059;28;20211;-67
2021/05/06 05:44:34;;;;;;;0.50;0.50;;;18.60;48.80;;;;;;5033592;28;20627;-67
2021/05/06 05:55:08;;;;;;;0.70;0.70;;;18.60;48.80;;;;;;5032476;28;20178;-67
2021/05/06 05:57:34;;;;;;;0.50;0.50;;;18.60;49.00;;;;;;5032672;28;20175;-67
2021/05/06 05:59:59;;;;;;;0.50;0.50;;;18.50;49.10;;;;;;5032452;28;20215;-67
2021/05/06 06:02:25;;;;;;;0.70;0.70;;;18.40;49.20;;;;;;5032031;28;20172;-67
2021/05/06 06:04:51;;;;;;;0.88;0.60;;;18.40;49.30;;;;;;5015548;28;20183;-68
2021/05/06 06:07:16;;;;;;;0.70;0.70;;;18.30;49.50;;;;;;5033268;28;20182;-67
2021/05/06 06:09:43;;;;;;;0.60;0.60;;;18.20;49.60;;;;;;5032027;28;20231;-66
2021/05/06 06:12:08;;;;;;;0.80;0.80;;;18.20;49.60;;;;;;5015207;28;20226;-66
2021/05/06 06:17:12;;;;;;;0.80;0.80;;;18.00;49.90;;;;;;5032459;28;20203;-68
2021/05/06 06:19:38;;;;;;;0.90;0.90;;;18.00;50.00;;;;;;5014660;28;20242;-67
2021/05/06 06:22:07;;;;;;;1.45;0.88;;;17.90;50.10;;;;;;5032139;28;20218;-68
2021/05/06 06:24:33;;;;;;;0.85;0.85;;;17.90;50.20;;;;;;5015276;28;20178;-68
2021/05/06 06:26:58;;;;;;;0.70;0.70;;;17.80;50.20;;;;;;5032865;28;20171;-67
2021/05/06 06:29:30;;;;;;;0.70;0.70;;;17.80;50.20;;;;;;5031834;28;20254;-67
2021/05/06 06:31:56;;;;;;;1.13;1.05;;;17.70;50.30;;;;;;5016195;28;20164;-65
2021/05/06 06:34:22;;;;;;;0.68;0.68;;;17.70;50.40;;;;;;5032266;28;20537;-65
2021/05/06 06:36:47;;;;;;;0.90;0.90;;;17.70;50.50;;;;;;5014544;28;20238;-67
2021/05/06 06:39:15;;;;;;;1.65;0.70;;;17.70;50.50;;;;;;5032636;28;20207;-66
2021/05/06 06:41:41;;;;;;;1.77;0.80;;;17.80;50.50;;;;;;5015009;28;20168;-67
2021/05/06 06:44:07;;;;;;;1.10;1.00;;;17.80;50.50;;;;;;4997804;28;20214;-64
2021/05/06 06:46:33;;;;;;;1.42;1.33;;;17.90;50.60;;;;;;5032685;28;20210;-78
2021/05/06 06:48:58;;;;;;;3.67;1.67;;;17.90;50.70;;;;;;4996031;28;20183;-67
2021/05/06 06:51:24;;;;;;;2.72;1.20;;;17.90;50.80;;;;;;5030123;28;20172;-77
2021/05/06 06:53:51;;;;;;;2.15;1.33;;;17.90;51.00;;;;;;4998706;28;20510;-77
2021/05/06 06:56:16;;;;;;;1.67;1.40;;;17.90;51.10;;;;;;5023229;28;20175;-68
2021/05/06 06:58:42;;;;;;;3.25;1.50;;;17.90;51.10;;;;;;5051916;28;20688;-69
2021/05/06 07:01:08;;;;;;;4.50;1.63;;;17.90;51.30;;;;;;5052539;28;20167;-68
2021/05/06 07:03:34;;;;;;;4.55;1.80;;;17.90;51.60;;;;;;5008619;28;20219;-72
2021/05/06 07:06:00;;;;;;;2.33;1.58;;;17.80;51.70;;;;;;5014484;28;20187;-69
2021/05/06 07:08:29;;;;;;;2.63;1.50;;;17.90;52.00;;;;;;5032163;28;20635;-78
2021/05/06 07:10:56;;;;;;;8.32;1.98;;;17.90;52.00;;;;;;5032759;28;20187;-67
2021/05/06 07:13:22;;;;;;;5.50;2.08;;;17.90;52.20;;;;;;5001391;28;20203;-75
2021/05/06 07:15:49;;;;;;;7.30;2.55;;;18.00;52.10;;;;;;5035896;28;20199;-72
2021/05/06 07:18:15;;;;;;;4.95;2.28;;;18.00;52.30;;;;;;5001397;28;20666;-70
2021/05/06 07:20:43;;;;;;;7.95;2.65;;;18.00;52.80;;;;;;5017961;28;20616;-74
2021/05/06 07:23:09;;;;;;;5.63;1.92;;;18.10;52.20;;;;;;5002305;28;20168;-74
2021/05/06 07:25:35;;;;;;;5.53;2.60;;;18.00;52.00;;;;;;5034787;28;20168;-68
2021/05/06 07:28:11;;;;;;;3.85;2.05;;;18.00;52.10;;;;;;5038462;28;20179;-74
2021/05/06 07:30:36;;;;;;;2.85;1.73;;;17.90;52.00;;;;;;5036470;28;20179;-68
2021/05/06 07:33:02;;;;;;;5.10;2.03;;;17.90;52.10;;;;;;5017590;28;20176;-75
2021/05/06 07:35:28;;;;;;;3.88;1.95;;;17.90;52.80;;;;;;5035238;28;20250;-68
2021/05/06 07:37:53;;;;;;;5.00;2.20;;;17.90;52.30;;;;;;5035688;28;20187;-75
2021/05/06 07:40:19;;;;;;;4.28;2.03;;;17.80;52.20;;;;;;5034522;28;20187;-74
2021/05/06 07:42:45;;;;;;;3.08;1.63;;;17.80;52.30;;;;;;5035430;28;20172;-77
2021/05/06 07:45:11;;;;;;;6.65;2.67;;;17.80;52.30;;;;;;5001228;28;20176;-76
2021/05/06 07:47:36;;;;;;;5.18;1.70;;;17.80;52.20;;;;;;5017046;28;20187;-68
2021/05/06 07:50:02;;;;;;;2.88;1.70;;;17.80;52.20;;;;;;5017589;28;20164;-76
2021/05/06 07:52:28;;;;;;;3.75;1.70;;;17.80;52.10;;;;;;5001542;28;20175;-77
2021/05/06 07:54:55;;;;;;;2.95;1.80;;;17.80;52.20;;;;;;5000512;28;20183;-67
2021/05/06 07:57:21;;;;;;;5.35;2.03;;;17.80;52.20;;;;;;5017471;28;20175;-71
2021/05/06 07:59:47;;;;;;;2.58;1.80;;;17.80;52.20;;;;;;5017379;28;20197;-75
2021/05/06 08:02:12;;;;;;;1.88;1.45;;;17.90;52.30;;;;;;5016660;28;20168;-77
2021/05/06 08:04:38;;;;;;;3.13;1.98;;;17.90;52.50;;;;;;5017173;28;20176;-76
2021/05/06 08:07:03;;;;;;;2.72;1.92;;;17.90;52.30;;;;;;5034983;28;20196;-74
2021/05/06 08:09:29;;;;;;;2.38;1.95;;;17.90;52.30;;;;;;5017550;28;20294;-76
2021/05/06 08:11:58;;;;;;;2.05;1.60;;;17.90;52.30;;;;;;5036250;28;20628;-76
2021/05/06 08:14:24;;;;;;;2.58;1.73;;;17.90;52.90;;;;;;5034810;28;20168;-75
2021/05/06 08:16:50;;;;;;;3.50;1.50;;;17.90;52.20;;;;;;5017257;28;20172;-74
2021/05/06 08:19:15;;;;;;;2.00;1.80;;;17.90;52.30;;;;;;5017106;28;20267;-68
2021/05/06 08:21:41;;;;;;;2.58;1.90;;;17.90;52.40;;;;;;5016310;28;20171;-75
2021/05/06 08:24:07;;;;;;;3.40;1.70;;;17.90;52.50;;;;;;5000508;28;20172;-68
2021/05/06 08:26:35;;;;;;;2.75;2.30;;;17.80;52.40;;;;;;5034347;28;20176;-77
2021/05/06 08:29:00;;;;;;;2.85;2.15;;;17.80;52.30;;;;;;5035796;28;20163;-77
2021/05/06 08:31:26;;;;;;;3.97;2.05;;;17.80;52.40;;;;;;4984026;28;20630;-76
2021/05/06 08:33:52;;;;;;;2.45;1.92;;;17.80;52.30;;;;;;5034239;28;20172;-73
2021/05/06 08:36:17;;;;;;;2.03;1.83;;;17.80;52.40;;;;;;5015641;28;20190;-71
2021/05/06 08:38:43;;;;;;;2.40;1.90;;;17.80;52.30;;;;;;5016900;28;20199;-75
2021/05/06 08:41:08;;;;;;;2.92;1.88;;;17.80;52.40;;;;;;5016876;28;20626;-73
2021/05/06 08:43:37;;;;;;;3.53;1.77;;;17.80;52.30;;;;;;4999599;28;20229;-76
2021/05/06 08:46:03;;;;;;;3.35;1.90;;;17.70;52.30;;;;;;5000844;28;20172;-76
2021/05/06 08:48:29;;;;;;;1.98;1.38;;;17.70;52.90;;;;;;5016398;28;20266;-67
2021/05/06 08:50:55;;;;;;;3.42;1.70;;;17.70;52.40;;;;;;5016050;28;20587;-76
2021/05/06 08:53:20;;;;;;;3.63;1.98;;;17.70;52.50;;;;;;5016254;28;20206;-66
2021/05/06 08:55:46;;;;;;;1.60;1.50;;;17.70;52.40;;;;;;4999963;28;20183;-73
2021/05/06 08:58:12;;;;;;;2.55;1.80;;;17.70;52.50;;;;;;5015819;28;20195;-68
2021/05/06 09:00:38;;;;;;;1.83;1.52;;;17.70;52.50;;;;;;5033610;28;20194;-68
2021/05/06 09:03:04;;;;;;;3.35;1.65;;;17.60;52.50;;;;;;5016190;28;20175;-68
2021/05/06 09:05:29;;;;;;;1.58;1.48;;;17.70;52.50;;;;;;5015266;28;20632;-72
2021/05/06 09:07:55;;;;;;;2.53;1.45;;;17.70;52.40;;;;;;5033962;28;20172;-77
2021/05/06 09:10:50;;;;;;;3.78;1.77;;;17.80;52.20;;;;;;5017432;28;20215;-69
2021/05/06 09:13:26;;;;;;;1.60;1.50;;;17.90;52.00;;;;;;4996180;28;20192;-68
2021/05/06 09:15:53;;;;;;;1.95;1.75;;;17.80;52.10;;;;;;4999823;28;20241;-75
2021/05/06 09:18:35;;;;;;;2.03;1.63;;;17.80;52.20;;;;;;5014959;28;20192;-72
2021/05/06 09:21:01;;;;;;;1.70;1.60;;;17.70;52.20;;;;;;4999791;28;20174;-74
2021/05/06 09:23:26;;;;;;;1.98;1.55;;;17.80;52.30;;;;;;5015562;28;20175;-68
2021/05/06 09:25:52;;;;;;;1.98;1.80;;;17.70;52.20;;;;;;5015179;28;20234;-76
2021/05/06 09:28:19;;;;;;;1.92;1.48;;;17.70;52.30;;;;;;5016277;28;20661;-67
2021/05/06 09:30:56;;;;;;;2.58;1.50;;;17.70;52.90;;;;;;5000907;28;20163;-67
2021/05/06 09:33:34;;;;;;;2.45;1.77;;;17.70;52.30;;;;;;5032368;28;20268;-70
2021/05/06 09:36:13;;;;;;;2.03;1.60;;;17.70;52.30;;;;;;5032981;28;20179;-74
2021/05/06 09:38:42;;;;;;;2.80;1.30;;;17.70;52.30;;;;;;4999380;28;20196;-68
2021/05/06 09:41:08;;;;;;;1.65;1.55;;;17.70;52.40;;;;;;5015361;28;20578;-68
2021/05/06 09:43:41;;;;;;;2.17;1.55;;;17.70;52.30;;;;;;5032973;28;20250;-74
2021/05/06 09:46:31;;;;;;;2.78;1.60;;;17.90;52.10;;;;;;4999003;28;20623;-69
2021/05/06 09:49:01;;;;;;;2.63;1.65;;;17.90;51.80;;;;;;5033186;28;20658;-71
2021/05/06 09:51:33;;;;;;;1.75;1.63;;;17.90;51.80;;;;;;5015228;28;20176;-67
2021/05/06 09:53:58;;;;;;;2.90;1.77;;;18.00;51.80;;;;;;5032414;28;20168;-66
2021/05/06 09:56:25;;;;;;;2.70;1.80;;;18.10;51.70;;;;;;5032736;28;20170;-73
2021/05/06 09:58:51;;;;;;;2.95;1.70;;;18.10;51.60;;;;;;4999018;28;20250;-69
2021/05/06 10:01:17;;;;;;;2.08;1.40;;;18.00;51.70;;;;;;4998209;28;20623;-68
2021/05/06 10:03:44;;;;;;;4.28;1.60;;;18.10;51.50;;;;;;5015416;28;20253;-67
2021/05/06 10:06:14;;;;;;;4.03;1.55;;;18.10;51.60;;;;;;5032763;28;20176;-68
2021/05/06 10:08:39;;;;;;;2.40;1.20;;;18.10;51.80;;;;;;5014898;28;20183;-77
2021/05/06 10:11:14;;;;;;;1.95;1.42;;;18.20;51.80;;;;;;5015651;28;20172;-71
2021/05/06 10:13:40;;;;;;;2.55;1.25;;;18.30;51.70;;;;;;5015090;28;20642;-76
2021/05/06 10:16:10;;;;;;;1.60;1.30;;;18.30;52.20;;;;;;5014741;28;20542;-74
2021/05/06 10:18:39;;;;;;;1.70;1.40;;;18.30;51.60;;;;;;5015218;28;20294;-68
2021/05/06 10:21:06;;;;;;;2.85;1.42;;;18.30;51.70;;;;;;5014985;28;20255;-74
2021/05/06 10:23:31;;;;;;;3.70;1.85;;;18.20;51.80;;;;;;5015194;28;20168;-74
2021/05/06 10:25:57;;;;;;;1.45;1.10;;;18.20;51.90;;;;;;5015441;28;20176;-68
2021/05/06 10:28:23;;;;;;;3.05;1.60;;;18.30;51.80;;;;;;4998240;28;20573;-71
2021/05/06 10:30:48;;;;;;;1.75;1.10;;;18.40;51.70;;;;;;5015364;28;20184;-75
2021/05/06 10:33:14;;;;;;;1.83;1.30;;;18.40;51.60;;;;;;5014857;28;20174;-73
2021/05/06 10:35:41;;;;;;;2.85;1.40;;;18.40;51.50;;;;;;4997493;28;20560;-61
2021/05/06 10:38:06;;;;;;;2.88;1.70;;;18.50;51.50;;;;;;4998781;28;20168;-64
2021/05/06 10:40:38;;;;;;;3.58;1.48;;;18.50;51.40;;;;;;4998361;28;20263;-61
2021/05/06 10:43:27;;;;;;;1.77;1.35;;;18.50;51.40;;;;;;5033691;28;20194;-68
2021/05/06 10:46:00;;;;;;;1.60;1.17;;;18.50;51.50;;;;;;5044390;28;20255;-61
2021/05/06 10:49:01;;;;;;;2.53;1.33;;;18.50;51.40;;;;;;5019076;28;20183;-60
2021/05/06 10:51:36;;;;;;;3.08;1.42;;;18.50;51.30;;;;;;5035288;28;20176;-69
2021/05/06 10:54:23;;;;;;;2.45;1.58;;;18.50;51.20;;;;;;5036243;28;20254;-61
2021/05/06 10:56:49;;;;;;;1.77;1.38;;;18.60;51.20;;;;;;5035699;28;20634;-61
2021/05/06 10:59:28;;;;;;;5.25;1.52;;;18.60;51.10;;;;;;5032252;28;20233;-61
2021/05/06 11:01:54;;;;;;;1.73;1.50;;;18.70;51.10;;;;;;5022450;28;20171;-60
2021/05/06 11:04:41;;;;;;;2.08;1.20;;;18.70;51.10;;;;;;5037227;28;20193;-60
2021/05/06 11:07:18;;;;;;;1.23;1.20;;;18.60;51.10;;;;;;5037644;28;20182;-63
2021/05/06 11:09:44;;;;;;;1.38;1.15;;;18.60;51.10;;;;;;5038100;28;20245;-60
2021/05/06 11:12:16;;;;;;;2.10;1.20;;;18.60;51.10;;;;;;5051919;28;20172;-60
2021/05/06 11:15:00;;;;;;;2.42;1.80;;;18.60;51.10;;;;;;5035955;28;20296;-60
2021/05/06 11:17:39;;;;;;;1.92;1.75;;;18.60;51.10;;;;;;5034936;28;20594;-59
2021/05/06 11:20:11;;;;;;;1.40;1.30;;;18.50;51.20;;;;;;5018071;28;20279;-60
2021/05/06 11:22:43;;;;;;;2.38;1.48;;;18.50;51.40;;;;;;5035651;28;21033;-60
2021/05/06 11:25:27;;;;;;;0.98;0.95;;;18.60;51.30;;;;;;5035075;28;20172;-60
2021/05/06 11:27:53;;;;;;;1.40;1.30;;;18.50;51.40;;;;;;5035512;28;20175;-60
2021/05/06 11:30:36;;;;;;;1.38;1.23;;;18.40;51.50;;;;;;5032088;28;20183;-59
2021/05/06 11:33:17;;;;;;;2.08;1.40;;;18.40;51.50;;;;;;5036827;28;20181;-58
2021/05/06 11:36:03;;;;;;;2.03;1.33;;;18.30;51.50;;;;;;5055247;28;20258;-59
2021/05/06 11:38:35;;;;;;;2.00;1.58;;;18.30;51.60;;;;;;5037285;28;20244;-60
2021/05/06 11:41:01;;;;;;;1.85;1.30;;;18.30;51.60;;;;;;5055480;28;20325;-59
2021/05/06 11:43:27;;;;;;;1.92;1.30;;;18.30;51.60;;;;;;5004596;28;20168;-60
2021/05/06 11:46:05;;;;;;;1.27;1.17;;;18.30;51.60;;;;;;5036887;28;20233;-58
2021/05/06 11:48:36;;;;;;;1.10;1.10;;;18.20;51.50;;;;;;5054949;28;20179;-59
2021/05/06 11:51:02;;;;;;;2.45;1.30;;;18.30;52.20;;;;;;5017568;28;20214;-58
2021/05/06 11:53:28;;;;;;;1.67;1.33;;;18.40;51.40;;;;;;5016738;28;20709;-59
2021/05/06 11:55:53;;;;;;;2.47;1.48;;;18.50;51.30;;;;;;5035083;28;20191;-60
2021/05/06 11:58:28;;;;;;;1.42;1.10;;;18.50;51.10;;;;;;5016635;28;20213;-60
2021/05/06 12:00:54;;;;;;;1.40;1.15;;;18.40;51.20;;;;;;5034473;28;20183;-62
2021/05/06 12:03:20;;;;;;;1.20;1.10;;;18.50;51.20;;;;;;5034813;28;20270;-61
2021/05/06 12:05:58;;;;;;;1.42;1.30;;;18.50;51.00;;;;;;5000991;28;20239;-60
2021/05/06 12:08:42;;;;;;;1.80;1.50;;;18.60;51.00;;;;;;5034101;28;20221;-68
2021/05/06 12:11:07;;;;;;;1.27;1.17;;;18.60;50.90;;;;;;5003673;28;20273;-65
2021/05/06 12:13:34;;;;;;;0.93;0.93;;;18.70;50.90;;;;;;5026518;28;20635;-69
2021/05/06 12:16:16;;;;;;;1.25;1.15;;;18.70;50.90;;;;;;5023770;28;20168;-66
2021/05/06 12:18:42;;;;;;;1.92;1.30;;;18.70;50.80;;;;;;5017522;28;20675;-61
2021/05/06 12:21:08;;;;;;;1.40;1.30;;;18.70;50.80;;;;;;5019912;28;20650;-63
2021/05/06 12:23:34;;;;;;;1.58;1.42;;;18.70;50.90;;;;;;5020060;28;20253;-61
2021/05/06 12:26:00;;;;;;;1.77;1.20;;;18.60;51.00;;;;;;5020258;28;20175;-62
2021/05/06 12:28:26;;;;;;;1.00;1.00;;;18.60;51.00;;;;;;5025734;28;20183;-62
2021/05/06 12:30:59;;;;;;;1.58;1.30;;;18.60;51.00;;;;;;5034530;28;20183;-62
2021/05/06 12:33:30;;;;;;;1.48;1.38;;;18.60;51.10;;;;;;5016608;28;20247;-62
2021/05/06 12:35:55;;;;;;;1.13;1.02;;;18.60;51.10;;;;;;5000190;28;20707;-64
2021/05/06 12:38:21;;;;;;;1.63;1.20;;;18.60;51.10;;;;;;5034055;28;20275;-66
2021/05/06 12:40:46;;;;;;;1.55;1.30;;;18.60;51.00;;;;;;5000514;28;20174;-64
2021/05/06 12:43:27;;;;;;;1.52;1.20;;;18.70;51.10;;;;;;5016186;28;20176;-63
2021/05/06 12:45:59;;;;;;;1.73;1.15;;;18.60;51.00;;;;;;5030321;28;20171;-71
2021/05/06 12:48:45;;;;;;;1.25;1.15;;;18.50;51.10;;;;;;5036256;28;20538;-63
2021/05/06 12:51:13;;;;;;;2.55;0.95;;;18.50;51.30;;;;;;5036256;28;20179;-73
2021/05/06 12:54:06;;;;;;;1.83;1.00;;;18.40;51.40;;;;;;5036274;28;20163;-63
2021/05/06 12:56:34;;;;;;;2.15;1.20;;;18.50;51.50;;;;;;5053213;28;20546;-71
2021/05/06 12:59:21;;;;;;;1.52;1.17;;;18.40;51.50;;;;;;5036271;28;20202;-64
2021/05/06 13:01:47;;;;;;;1.38;1.27;;;18.40;51.50;;;;;;5053844;28;20167;-66
2021/05/06 13:04:13;;;;;;;1.20;1.20;;;18.40;51.60;;;;;;5053094;28;20224;-70
2021/05/06 13:06:38;;;;;;;2.00;1.30;;;18.40;51.60;;;;;;5037077;28;20182;-67
2021/05/06 13:09:14;;;;;;;1.30;1.05;;;18.40;51.60;;;;;;5057899;28;20221;-68
2021/05/06 13:11:40;;;;;;;1.75;1.25;;;18.40;51.50;;;;;;5035159;28;20162;-67
2021/05/06 13:14:06;;;;;;;2.15;1.55;;;18.40;51.50;;;;;;5002896;28;20172;-65
2021/05/06 13:16:45;;;;;;;2.75;1.40;;;18.40;51.90;;;;;;5053371;28;20182;-72
2021/05/06 13:19:13;;;;;;;3.25;1.63;;;18.40;51.80;;;;;;5015903;28;20213;-65
2021/05/06 13:21:50;;;;;;;5.57;1.58;;;18.40;51.80;;;;;;4999504;28;20172;-67
2021/05/06 13:24:15;;;;;;;1.60;1.38;;;18.40;51.70;;;;;;5015477;28;20650;-70
2021/05/06 13:26:42;;;;;;;1.58;1.25;;;18.50;51.70;;;;;;4999277;28;20172;-68
2021/05/06 13:29:09;;;;;;;1.50;1.40;;;18.50;51.70;;;;;;5033561;28;20684;-73
2021/05/06 13:31:36;;;;;;;1.30;1.20;;;18.50;51.70;;;;;;5032623;28;20164;-68
2021/05/06 13:34:16;;;;;;;3.30;1.33;;;18.60;51.50;;;;;;4983311;28;20278;-65
2021/05/06 13:36:43;;;;;;;2.08;1.20;;;18.60;51.30;;;;;;5000304;28;20175;-65
2021/05/06 13:39:10;;;;;;;2.65;1.27;;;18.60;51.30;;;;;;5015261;28;20282;-66
2021/05/06 13:41:39;;;;;;;1.58;1.48;;;18.60;51.30;;;;;;5015614;28;20617;-69
2021/05/06 13:44:05;;;;;;;1.80;1.30;;;18.60;51.30;;;;;;5015418;28;20172;-65
2021/05/06 13:46:33;;;;;;;2.58;1.60;;;18.60;51.30;;;;;;5014631;28;20187;-64
2021/05/06 13:48:59;;;;;;;2.33;1.52;;;18.60;51.30;;;;;;5015720;28;20186;-64
2021/05/06 13:51:24;;;;;;;1.35;1.25;;;18.60;51.30;;;;;;5015155;28;20183;-68
2021/05/06 13:53:50;;;;;;;1.75;1.00;;;18.60;51.30;;;;;;5014886;28;20199;-64
2021/05/06 13:56:16;;;;;;;3.65;1.20;;;18.50;51.30;;;;;;5015580;28;20643;-69
2021/05/06 13:58:42;;;;;;;2.97;1.63;;;18.50;51.40;;;;;;4999156;28;20242;-64
2021/05/06 14:01:09;;;;;;;2.35;1.38;;;18.40;51.40;;;;;;4998494;28;20168;-64
2021/05/06 14:03:34;;;;;;;2.22;1.20;;;18.40;51.50;;;;;;5032544;28;20517;-64
2021/05/06 14:06:00;;;;;;;2.28;1.48;;;18.30;51.50;;;;;;5014997;28;20310;-64
2021/05/06 14:08:27;;;;;;;1.08;1.02;;;18.20;51.60;;;;;;5032284;28;20187;-65
2021/05/06 14:10:53;;;;;;;1.70;1.55;;;18.20;51.70;;;;;;5032802;28;20281;-64
2021/05/06 14:13:18;;;;;;;1.30;1.20;;;18.20;51.80;;;;;;5014272;28;20176;-65
2021/05/06 14:15:45;;;;;;;1.15;1.08;;;18.10;51.80;;;;;;4998809;28;20174;-69
2021/05/06 14:18:10;;;;;;;2.35;1.10;;;18.10;51.80;;;;;;4998952;28;20174;-63
2021/05/06 14:20:36;;;;;;;1.30;1.17;;;18.10;51.80;;;;;;5012067;28;20180;-65
2021/05/06 14:23:03;;;;;;;1.17;1.02;;;18.00;51.70;;;;;;5015057;28;20598;-65
2021/05/06 14:25:30;;;;;;;2.25;1.20;;;18.10;52.40;;;;;;5032261;28;20164;-64
2021/05/06 14:27:57;;;;;;;1.20;1.10;;;18.00;51.70;;;;;;5032313;28;20164;-64
2021/05/06 14:30:23;;;;;;;1.08;0.95;;;18.00;51.80;;;;;;5032379;28;20173;-63
2021/05/06 14:32:48;;;;;;;1.42;1.00;;;18.00;51.80;;;;;;5015149;28;20250;-64
2021/05/06 14:35:14;;;;;;;1.20;1.20;;;18.00;51.80;;;;;;5031994;28;20260;-64
2021/05/06 14:37:40;;;;;;;0.90;0.90;;;17.90;51.80;;;;;;4998151;28;20172;-65
2021/05/06 14:40:06;;;;;;;4.35;1.15;;;17.90;51.80;;;;;;4998630;28;20635;-65
2021/05/06 14:42:32;;;;;;;1.38;1.00;;;18.00;51.80;;;;;;5031726;28;20164;-65
2021/05/06 14:44:58;;;;;;;1.10;1.00;;;17.90;51.80;;;;;;5014903;28;20260;-64
2021/05/06 14:47:23;;;;;;;1.23;1.17;;;18.00;51.80;;;;;;5032178;28;20256;-64
2021/05/06 14:49:49;;;;;;;1.60;1.50;;;17.90;51.80;;;;;;5014184;28;20172;-64
2021/05/06 14:52:15;;;;;;;1.10;1.10;;;17.90;51.80;;;;;;5015012;28;20172;-64
2021/05/06 14:54:41;;;;;;;1.10;1.10;;;17.90;52.40;;;;;;5014473;28;20179;-71
2021/05/06 14:57:07;;;;;;;0.88;0.88;;;17.90;51.70;;;;;;5014469;28;20540;-65
2021/05/06 14:59:32;;;;;;;1.33;1.23;;;17.90;51.70;;;;;;5031993;28;20204;-66
2021/05/06 15:01:58;;;;;;;0.95;0.90;;;17.90;51.70;;;;;;4982226;28;20697;-65
2021/05/06 15:04:23;;;;;;;1.98;1.10;;;17.90;51.70;;;;;;5031357;28;20176;-64
2021/05/06 15:06:49;;;;;;;1.25;1.15;;;17.90;51.70;;;;;;5032320;28;20171;-65
2021/05/06 15:09:15;;;;;;;1.25;1.15;;;17.90;51.70;;;;;;5032020;28;20218;-65
2021/05/06 15:11:40;;;;;;;1.25;1.25;;;17.90;51.70;;;;;;5013789;28;20191;-65
2021/05/06 15:14:06;;;;;;;1.48;1.38;;;17.90;51.70;;;;;;5014609;28;20214;-64
2021/05/06 15:16:32;;;;;;;1.20;1.13;;;17.90;51.70;;;;;;5031346;28;20176;-64
2021/05/06 15:18:58;;;;;;;1.40;1.20;;;17.90;51.70;;;;;;4999019;28;20208;-68
2021/05/06 15:21:23;;;;;;;1.20;1.17;;;17.90;51.70;;;;;;5030777;28;20172;-65
2021/05/06 15:23:49;;;;;;;1.10;1.00;;;17.90;51.60;;;;;;5013709;28;20176;-65
2021/05/06 15:26:15;;;;;;;1.23;1.13;;;17.90;51.60;;;;;;5032263;28;20192;-65
2021/05/06 15:28:40;;;;;;;1.45;1.35;;;17.90;51.50;;;;;;5030810;28;20168;-65
2021/05/06 15:31:06;;;;;;;1.02;1.00;;;17.90;51.50;;;;;;5030348;28;20225;-69
2021/05/06 15:33:32;;;;;;;1.38;1.05;;;17.90;51.50;;;;;;5033257;28;20194;-78
2021/05/06 15:35:58;;;;;;;2.20;1.20;;;17.90;51.70;;;;;;5017698;28;20176;-72
2021/05/06 15:38:24;;;;;;;4.03;1.67;;;17.90;51.70;;;;;;5034704;28;20641;-68
2021/05/06 15:40:51;;;;;;;1.98;1.30;;;17.90;51.50;;;;;;5035560;28;20168;-63
2021/05/06 15:43:19;;;;;;;3.40;1.40;;;17.90;51.50;;;;;;5017697;28;20172;-65
2021/05/06 15:45:45;;;;;;;5.45;1.55;;;17.90;51.40;;;;;;5034712;28;20544;-72
2021/05/06 15:48:11;;;;;;;4.05;1.30;;;18.00;51.40;;;;;;5035296;28;20172;-68
2021/05/06 15:50:37;;;;;;;2.30;1.52;;;18.00;51.20;;;;;;5017505;28;20180;-63
2021/05/06 15:53:03;;;;;;;3.72;1.48;;;18.00;51.20;;;;;;5017335;28;20172;-62
2021/05/06 15:55:33;;;;;;;4.80;1.45;;;18.00;51.10;;;;;;5033760;28;20172;-64
2021/05/06 15:58:06;;;;;;;2.53;1.60;;;18.20;51.00;;;;;;5034092;28;20569;-67
2021/05/06 16:00:32;;;;;;;3.72;1.80;;;18.30;51.00;;;;;;5034242;28;20622;-63
2021/05/06 16:03:01;;;;;;;6.40;1.90;;;18.20;50.90;;;;;;5017594;28;20623;-61
2021/05/06 16:05:28;;;;;;;5.28;2.13;;;18.40;50.90;;;;;;5033680;28;20179;-65
2021/05/06 16:07:57;;;;;;;2.97;1.77;;;18.50;50.50;;;;;;5016791;28;20168;-66
2021/05/06 16:10:23;;;;;;;2.28;2.00;;;18.60;50.30;;;;;;5033272;28;20239;-63
2021/05/06 16:12:49;;;;;;;4.22;2.05;;;19.00;49.50;;;;;;5033139;28;20250;-66
2021/05/06 16:15:15;;;;;;;3.30;1.92;;;19.10;49.60;;;;;;5033739;28;20653;-66
2021/05/06 16:17:40;;;;;;;4.65;2.38;;;18.90;49.80;;;;;;5033482;28;20183;-67
2021/05/06 16:20:15;;;;;;;2.85;1.95;;;18.60;50.20;;;;;;5036142;28;20195;-66
2021/05/06 16:22:41;;;;;;;2.70;1.92;;;18.50;50.60;;;;;;5022469;28;20169;-68